Time;durP1;ratioP1;P1;durP2;ratioP2;P2;SDS_P1;SDS_P2;PMS_P1;PMS_P2;Temp;Humidity;BMP_temperature;BMP_pressure;BME280_temperature;BME280_humidity;BME280_pressure;Samples;Min_cycle;Max_cycle;Signal;HPM_P1;HPM_P2
2023/12/04 00:01:58;;;;;;;45.10;30.53;;;-2.00;91.90;;;;;;4955667;29;20156;-89
2023/12/04 00:04:27;;;;;;;41.60;30.07;;;-2.00;91.80;;;;;;4955098;29;20175;-90
2023/12/04 00:06:53;;;;;;;52.57;45.63;;;-2.00;91.90;;;;;;4937861;29;20175;-90
2023/12/04 00:09:23;;;;;;;50.27;44.80;;;-2.00;91.90;;;;;;4954670;28;20207;-90
2023/12/04 00:11:52;;;;;;;51.47;41.93;;;-1.90;92.00;;;;;;4938406;29;20167;-89
2023/12/04 00:14:17;;;;;;;42.90;29.10;;;-1.90;92.00;;;;;;4938095;29;20199;-89
2023/12/04 00:16:46;;;;;;;43.00;28.73;;;-1.80;92.00;;;;;;4937434;29;20287;-89
2023/12/04 00:19:17;;;;;;;40.93;29.23;;;-1.80;91.90;;;;;;4954570;28;20632;-89
2023/12/04 00:21:58;;;;;;;49.10;43.13;;;-1.80;91.90;;;;;;4937612;29;20187;-89
2023/12/04 00:24:23;;;;;;;54.77;44.90;;;-1.70;91.90;;;;;;4955440;29;20601;-89
2023/12/04 00:26:57;;;;;;;49.37;44.33;;;-1.70;91.80;;;;;;4937340;29;20309;-89
2023/12/04 00:29:52;;;;;;;44.80;27.60;;;-1.70;91.80;;;;;;4937659;29;20206;-89
2023/12/04 00:32:25;;;;;;;43.30;28.77;;;-1.80;91.70;;;;;;4937830;29;20264;-90
2023/12/04 00:34:56;;;;;;;50.30;44.60;;;-1.70;91.70;;;;;;4937907;29;20229;-89
2023/12/04 00:38:00;;;;;;;52.37;45.47;;;-1.70;91.60;;;;;;4954808;28;20179;-89
2023/12/04 00:40:31;;;;;;;49.40;44.20;;;-1.60;91.60;;;;;;4941073;29;20203;-89
2023/12/04 00:43:06;;;;;;;37.43;27.53;;;-1.70;91.40;;;;;;4958331;29;20172;-90
2023/12/04 00:45:31;;;;;;;40.43;27.90;;;-1.70;91.50;;;;;;4958118;29;20247;-91
2023/12/04 00:48:06;;;;;;;42.43;28.83;;;-1.70;91.40;;;;;;4940738;29;20747;-90
2023/12/04 00:50:50;;;;;;;39.03;27.20;;;-1.80;91.30;;;;;;4941123;29;20271;-90
2023/12/04 00:54:04;;;;;;;;;;;;;;;;;;;;;
2023/12/04 00:56:30;;;;;;;43.17;30.20;;;-1.80;91.20;;;;;;4945127;29;20199;-89
2023/12/04 00:58:55;;;;;;;44.60;29.77;;;-1.80;91.20;;;;;;4940530;29;20301;-89
2023/12/04 01:01:32;;;;;;;47.73;42.67;;;-1.70;91.20;;;;;;4957812;29;20176;-90
2023/12/04 01:04:21;;;;;;;49.97;44.90;;;-1.80;91.10;;;;;;4959331;29;20168;-91
2023/12/04 01:06:49;;;;;;;47.73;42.60;;;-1.80;90.90;;;;;;4941819;29;20195;-86
2023/12/04 01:09:28;;;;;;;51.93;46.27;;;-1.90;90.80;;;;;;4940710;29;20214;-88
2023/12/04 01:12:02;;;;;;;46.93;41.87;;;-1.90;90.70;;;;;;4940680;29;20227;-87
2023/12/04 01:14:40;;;;;;;46.60;41.87;;;-1.90;90.60;;;;;;4958002;29;20171;-89
2023/12/04 01:17:08;;;;;;;46.73;41.87;;;-1.90;90.40;;;;;;4957396;29;20171;-90
2023/12/04 01:19:43;;;;;;;50.70;45.00;;;-1.90;90.30;;;;;;4938920;29;20741;-89
2023/12/04 01:22:22;;;;;;;47.67;42.90;;;-2.00;89.80;;;;;;4940875;29;20242;-89
2023/12/04 01:25:16;;;;;;;47.90;42.97;;;-2.20;89.70;;;;;;4941120;29;20176;-89
2023/12/04 01:27:50;;;;;;;48.10;43.10;;;-2.20;89.80;;;;;;4955924;28;20196;-89
2023/12/04 01:30:19;;;;;;;46.20;41.43;;;-2.20;90.10;;;;;;4940992;29;20179;-88
2023/12/04 01:32:50;;;;;;;46.10;41.07;;;-2.10;90.00;;;;;;4940183;29;20187;-89
2023/12/04 01:35:28;;;;;;;48.33;41.73;;;-2.30;89.90;;;;;;4940169;29;20270;-90
2023/12/04 01:38:11;;;;;;;37.90;28.37;;;-2.20;90.20;;;;;;4940373;29;20202;-89
2023/12/04 01:41:03;;;;;;;36.03;29.33;;;-2.20;90.00;;;;;;4956062;29;20691;-90
2023/12/04 01:43:55;;;;;;;36.07;29.17;;;-2.20;90.10;;;;;;4940100;29;20618;-89
2023/12/04 01:46:35;;;;;;;48.73;43.93;;;-2.30;89.50;;;;;;4937716;29;20274;-90
2023/12/04 01:49:07;;;;;;;51.80;46.70;;;-2.50;89.20;;;;;;4939611;29;20282;-90
2023/12/04 01:51:38;;;;;;;52.63;47.00;;;-2.60;89.20;;;;;;4939949;29;20670;-89
2023/12/04 01:54:09;;;;;;;38.97;29.60;;;-2.50;89.40;;;;;;4955351;29;20330;-90
2023/12/04 01:56:37;;;;;;;36.77;29.87;;;-2.50;89.20;;;;;;4939543;29;20198;-89
2023/12/04 01:59:12;;;;;;;39.20;30.83;;;-2.60;88.80;;;;;;4939516;29;20320;-90
2023/12/04 02:01:50;;;;;;;51.17;45.97;;;-2.60;88.80;;;;;;4939648;29;20183;-89
2023/12/04 02:04:18;;;;;;;50.30;45.20;;;-2.60;88.90;;;;;;4940200;29;20173;-89
2023/12/04 02:06:50;;;;;;;53.77;48.67;;;-2.60;88.90;;;;;;4956835;29;20214;-90
2023/12/04 02:12:25;;;;;;;37.70;26.97;;;-2.60;89.10;;;;;;4956615;29;20210;-89
2023/12/04 02:14:54;;;;;;;48.97;43.03;;;-2.60;89.00;;;;;;4956646;29;20165;-90
2023/12/04 02:17:50;;;;;;;50.63;44.57;;;-2.70;88.90;;;;;;4939650;29;20195;-89
2023/12/04 02:20:25;;;;;;;51.43;46.33;;;-2.80;88.90;;;;;;4939056;29;20305;-89
2023/12/04 02:23:01;;;;;;;39.17;27.57;;;-3.00;89.00;;;;;;4939395;29;20184;-89
2023/12/04 02:25:42;;;;;;;39.37;27.87;;;-3.10;89.10;;;;;;4956970;29;20165;-90
2023/12/04 02:28:16;;;;;;;49.67;44.53;;;-3.20;89.10;;;;;;4938897;29;20642;-90
2023/12/04 02:31:23;;;;;;;52.20;46.87;;;-3.30;89.20;;;;;;4939572;29;20175;-89
2023/12/04 02:34:03;;;;;;;53.03;47.63;;;-3.40;89.20;;;;;;4939475;29;20184;-90
2023/12/04 02:36:30;;;;;;;38.20;27.63;;;-3.60;89.30;;;;;;4939386;29;20180;-89
2023/12/04 02:41:57;;;;;;;47.40;42.23;;;-3.70;89.60;;;;;;4948826;29;20243;-90
2023/12/04 02:44:30;;;;;;;46.93;41.87;;;-3.80;89.70;;;;;;4938518;29;20268;-89
2023/12/04 02:47:25;;;;;;;49.70;44.47;;;-3.80;89.90;;;;;;4938544;29;20177;-89
2023/12/04 02:50:03;;;;;;;50.03;44.63;;;-3.70;90.10;;;;;;4938739;29;20195;-89
2023/12/04 02:52:50;;;;;;;38.97;26.00;;;-3.60;90.30;;;;;;4955905;29;20192;-90
2023/12/04 02:55:29;;;;;;;37.83;28.07;;;-3.50;90.40;;;;;;4939334;29;20260;-89
2023/12/04 02:58:22;;;;;;;;;;;;;;;;;;;;;
2023/12/04 03:04:33;;;;;;;43.70;35.07;;;-3.10;91.00;;;;;;4915481;29;20195;-89
2023/12/04 03:07:28;;;;;;;39.50;26.67;;;-3.00;91.10;;;;;;4899987;29;20186;-90
2023/12/04 03:10:14;;;;;;;42.27;36.50;;;-3.00;91.10;;;;;;4915480;29;20186;-89
2023/12/04 03:13:07;;;;;;;43.80;35.40;;;-2.80;91.30;;;;;;4900451;29;20271;-89
2023/12/04 03:16:08;;;;;;;46.57;38.43;;;-2.70;91.30;;;;;;4952535;29;20193;-90
2023/12/04 03:24:59;;;;;;;46.37;36.67;;;-2.60;91.00;;;;;;4955840;29;20212;-89
2023/12/04 03:27:41;;;;;;;;;;;;;;;;;;;;;
2023/12/04 03:30:47;;;;;;;;;;;;;;;;;;;;;
2023/12/04 03:36:23;;;;;;;37.90;23.73;;;-2.60;90.80;;;;;;4955095;29;20256;-89
2023/12/04 03:42:31;;;;;;;;;;;;;;;;;;;;;
2023/12/04 03:45:16;;;;;;;42.43;35.33;;;-2.60;90.60;;;;;;4955547;29;20184;-90
2023/12/04 03:51:43;;;;;;;44.07;37.17;;;-2.60;90.50;;;;;;4896638;29;20337;-90
2023/12/04 03:55:08;;;;;;;41.47;37.10;;;-2.50;90.50;;;;;;4895993;29;20668;-90
2023/12/04 03:57:45;;;;;;;42.67;38.03;;;-2.50;90.50;;;;;;4874806;29;20222;-88
2023/12/04 04:01:06;;;;;;;35.80;24.30;;;-2.40;90.40;;;;;;4899344;29;20315;-90
2023/12/04 04:04:12;;;;;;;37.93;23.90;;;-2.60;90.10;;;;;;4915752;29;20667;-89
2023/12/04 04:11:30;;;;;;;42.50;37.63;;;-2.80;90.00;;;;;;4877224;29;20216;-90
2023/12/04 04:14:26;;;;;;;34.67;24.10;;;-2.80;89.90;;;;;;4876417;29;20227;-91
2023/12/04 04:17:39;;;;;;;;;;;;;;;;;;;;;
2023/12/04 04:20:47;;;;;;;;;;;;;;;;;;;;;
2023/12/04 04:23:21;;;;;;;45.43;40.87;;;-3.10;89.80;;;;;;4959101;29;20189;-89
2023/12/04 04:25:47;;;;;;;46.30;41.37;;;-3.10;89.90;;;;;;4900670;29;20186;-88
2023/12/04 04:29:00;;;;;;;38.30;24.63;;;-3.20;89.80;;;;;;4953212;28;20208;-89
2023/12/04 04:36:02;;;;;;;;;;;;;;;;;;;;;
2023/12/04 04:39:15;;;;;;;;;;;;;;;;;;;;;
2023/12/04 04:46:25;;;;;;;43.57;35.47;;;-3.00;90.50;;;;;;4861849;29;20186;-90
2023/12/04 04:49:36;;;;;;;43.57;37.20;;;-2.90;90.60;;;;;;4819844;29;20217;-89
2023/12/04 05:28:17;;;;;;;33.73;28.80;;;-2.10;90.90;;;;;;4917815;29;20190;-90
2023/12/04 07:16:06;;;;;;;35.10;20.87;;;-1.10;92.70;;;;;;2311440;26;20279;-91
2023/12/04 07:19:16;;;;;;;37.07;24.43;;;-1.10;92.80;;;;;;4957536;28;20289;-91
2023/12/04 07:21:57;;;;;;;34.97;25.20;;;-1.10;92.80;;;;;;4957566;28;20237;-91
2023/12/04 07:28:04;;;;;;;31.93;21.93;;;-1.10;92.90;;;;;;4947008;28;20219;-91
2023/12/04 07:30:43;;;;;;;38.63;21.13;;;-1.00;93.00;;;;;;4975961;28;20191;-91
2023/12/04 07:33:14;;;;;;;38.37;26.97;;;-1.00;93.00;;;;;;4976773;28;20178;-91
2023/12/04 07:35:45;;;;;;;37.33;26.40;;;-1.00;93.00;;;;;;4992938;28;20214;-90
2023/12/04 07:38:16;;;;;;;38.87;28.17;;;-1.00;93.10;;;;;;4976622;28;20197;-91
2023/12/04 07:41:11;;;;;;;32.80;20.90;;;-0.90;93.10;;;;;;4993923;28;20190;-90
2023/12/04 07:43:43;;;;;;;31.40;21.23;;;-0.90;93.10;;;;;;4971675;28;20182;-92
2023/12/04 07:46:27;;;;;;;38.93;29.30;;;-1.00;93.10;;;;;;4994564;28;20169;-92
2023/12/04 07:48:56;;;;;;;36.53;28.00;;;-1.00;93.10;;;;;;4976965;28;20199;-91
2023/12/04 07:51:21;;;;;;;36.07;28.43;;;-0.90;93.20;;;;;;4977521;28;20178;-89
2023/12/04 07:54:26;;;;;;;37.40;22.10;;;-0.90;93.20;;;;;;4992444;28;20178;-90
2023/12/04 07:56:59;;;;;;;34.80;22.10;;;-0.90;93.20;;;;;;4993588;28;20190;-89
2023/12/04 07:59:34;;;;;;;37.67;28.17;;;-0.90;93.20;;;;;;4976183;28;20202;-91
2023/12/04 08:02:02;;;;;;;35.97;27.97;;;-0.90;93.20;;;;;;4993851;28;20170;-91
2023/12/04 08:04:30;;;;;;;37.40;27.57;;;-0.90;93.20;;;;;;4976652;28;20179;-92
2023/12/04 08:06:59;;;;;;;32.40;22.33;;;-0.90;93.20;;;;;;4976337;28;20193;-92
2023/12/04 08:09:25;;;;;;;36.87;23.77;;;-0.90;93.10;;;;;;4976270;28;20197;-91
2023/12/04 08:11:55;;;;;;;40.83;30.63;;;-0.90;93.20;;;;;;4976208;28;20179;-91
2023/12/04 08:14:26;;;;;;;33.67;28.67;;;-0.90;93.20;;;;;;4976250;28;20194;-92
2023/12/04 08:16:58;;;;;;;38.77;27.97;;;-0.80;93.20;;;;;;4976329;28;20261;-91
2023/12/04 08:19:29;;;;;;;37.83;25.10;;;-0.80;93.20;;;;;;4976825;28;20210;-91
2023/12/04 08:21:55;;;;;;;35.53;23.00;;;-0.80;93.10;;;;;;4994249;28;20578;-92
2023/12/04 08:24:26;;;;;;;36.17;23.77;;;-0.90;93.10;;;;;;4993819;28;20202;-91
2023/12/04 08:26:52;;;;;;;38.53;28.17;;;-0.90;93.10;;;;;;4994003;28;20162;-92
2023/12/04 08:29:20;;;;;;;39.83;29.07;;;-0.80;93.20;;;;;;4994175;28;20302;-91
2023/12/04 08:31:49;;;;;;;43.50;31.03;;;-0.90;93.10;;;;;;4993632;28;20222;-91
2023/12/04 08:34:20;;;;;;;32.63;22.63;;;-0.80;93.20;;;;;;4976552;28;20198;-90
2023/12/04 08:36:46;;;;;;;38.37;24.90;;;-0.80;93.20;;;;;;4993642;28;20192;-90
2023/12/04 08:39:14;;;;;;;46.30;31.17;;;-0.80;93.10;;;;;;4976248;28;20195;-90
2023/12/04 08:41:47;;;;;;;42.97;30.97;;;-0.80;93.10;;;;;;4992278;28;20179;-90
2023/12/04 08:44:15;;;;;;;40.53;29.57;;;-0.80;93.10;;;;;;4993623;28;20239;-90
2023/12/04 08:46:43;;;;;;;36.40;23.83;;;-0.80;93.20;;;;;;4975989;28;20187;-90
2023/12/04 08:49:09;;;;;;;42.30;24.77;;;-0.80;93.20;;;;;;4993631;28;20244;-90
2023/12/04 08:51:37;;;;;;;41.30;23.43;;;-0.80;93.20;;;;;;4976660;28;20182;-90
2023/12/04 08:54:07;;;;;;;37.53;27.33;;;-0.80;93.20;;;;;;4976952;28;20189;-91
2023/12/04 08:56:34;;;;;;;43.40;32.03;;;-0.70;93.20;;;;;;4976385;28;20378;-90
2023/12/04 08:59:03;;;;;;;39.13;29.53;;;-0.70;93.20;;;;;;4977470;28;20199;-90
2023/12/04 09:01:31;;;;;;;39.23;23.17;;;-0.70;93.20;;;;;;4995863;28;20210;-90
2023/12/04 09:03:59;;;;;;;35.60;23.53;;;-0.70;93.20;;;;;;4995421;28;20176;-90
2023/12/04 09:06:25;;;;;;;36.40;27.27;;;-0.70;93.20;;;;;;4979503;28;20276;-90
2023/12/04 09:08:51;;;;;;;39.47;28.83;;;-0.70;93.20;;;;;;4996603;28;20325;-91
2023/12/04 09:11:16;;;;;;;40.17;29.10;;;-0.70;93.10;;;;;;4996583;28;20173;-90
2023/12/04 09:13:42;;;;;;;34.60;23.10;;;-0.60;93.20;;;;;;4996250;28;20176;-90
2023/12/04 09:16:10;;;;;;;36.57;21.87;;;-0.60;93.20;;;;;;4979263;28;20205;-91
2023/12/04 09:18:38;;;;;;;34.80;24.27;;;-0.60;93.20;;;;;;4996238;28;20666;-90
2023/12/04 09:21:04;;;;;;;41.20;29.67;;;-0.60;93.20;;;;;;4979196;28;20565;-90
2023/12/04 09:23:30;;;;;;;43.70;29.57;;;-0.60;93.20;;;;;;4978951;28;20179;-90
2023/12/04 09:25:56;;;;;;;36.87;28.23;;;-0.50;93.20;;;;;;4979678;28;20591;-90
2023/12/04 09:28:21;;;;;;;35.17;23.40;;;-0.50;93.10;;;;;;4979714;28;20258;-90
2023/12/04 09:30:47;;;;;;;35.93;22.33;;;-0.40;93.10;;;;;;4995892;28;20185;-91
2023/12/04 09:33:13;;;;;;;40.67;29.83;;;-0.50;93.00;;;;;;4996348;28;20172;-90
2023/12/04 09:35:39;;;;;;;40.50;29.60;;;-0.40;93.00;;;;;;4996223;28;20177;-90
2023/12/04 09:38:05;;;;;;;34.63;27.53;;;-0.40;92.90;;;;;;4995845;28;20199;-90
2023/12/04 09:40:30;;;;;;;39.70;24.53;;;-0.40;92.90;;;;;;4994727;28;20200;-90
2023/12/04 09:42:56;;;;;;;33.63;22.17;;;-0.40;92.80;;;;;;4995482;28;20695;-90
2023/12/04 09:45:24;;;;;;;40.03;26.77;;;-0.40;92.80;;;;;;4996046;28;20171;-90
2023/12/04 09:47:50;;;;;;;39.30;27.23;;;-0.30;92.70;;;;;;4996007;28;20191;-90
2023/12/04 09:50:20;;;;;;;42.97;29.23;;;-0.30;92.70;;;;;;4994622;28;20226;-90
2023/12/04 09:52:53;;;;;;;35.70;26.27;;;-0.30;92.60;;;;;;4996333;28;20163;-90
2023/12/04 09:55:19;;;;;;;35.23;23.33;;;-0.20;92.50;;;;;;4995399;28;20577;-89
2023/12/04 09:57:46;;;;;;;37.70;24.43;;;-0.20;92.50;;;;;;4995668;28;20667;-90
2023/12/04 10:00:14;;;;;;;37.97;28.17;;;-0.20;92.50;;;;;;4994796;28;20755;-90
2023/12/04 10:02:43;;;;;;;38.90;30.33;;;-0.20;92.40;;;;;;4995668;28;20222;-90
2023/12/04 10:05:09;;;;;;;31.10;23.07;;;-0.20;92.40;;;;;;4994603;28;20299;-90
2023/12/04 10:07:36;;;;;;;36.87;22.90;;;-0.20;92.30;;;;;;4978076;28;20621;-90
2023/12/04 10:10:05;;;;;;;35.67;23.77;;;-0.20;92.20;;;;;;4977943;28;20237;-90
2023/12/04 10:12:31;;;;;;;41.63;27.10;;;-0.20;92.20;;;;;;4977992;28;20181;-89
2023/12/04 10:15:11;;;;;;;38.23;27.13;;;-0.20;92.10;;;;;;4978034;28;20544;-89
2023/12/04 10:17:43;;;;;;;35.20;24.30;;;-0.10;92.10;;;;;;4978751;28;20185;-90
2023/12/04 10:20:12;;;;;;;34.70;23.73;;;-0.10;92.00;;;;;;4995301;28;20219;-90
2023/12/04 10:22:39;;;;;;;40.93;27.30;;;-0.10;92.00;;;;;;4977810;28;20193;-90
2023/12/04 10:25:40;;;;;;;38.57;27.33;;;-0.10;92.00;;;;;;4978840;28;20624;-90
2023/12/04 10:28:11;;;;;;;35.73;27.80;;;-0.10;91.90;;;;;;4928943;28;20209;-89
2023/12/04 10:30:37;;;;;;;35.63;23.33;;;-0.10;91.90;;;;;;4999924;28;20228;-87
2023/12/04 10:33:05;;;;;;;34.30;23.80;;;-0.10;91.80;;;;;;4999120;28;20550;-87
2023/12/04 10:35:32;;;;;;;35.63;23.83;;;0.00;91.70;;;;;;4980796;28;20180;-90
2023/12/04 10:38:02;;;;;;;35.80;24.67;;;0.00;91.60;;;;;;4978413;28;20196;-89
2023/12/04 10:40:33;;;;;;;38.13;24.83;;;0.00;91.50;;;;;;4977409;28;20199;-89
2023/12/04 10:43:24;;;;;;;35.03;23.70;;;0.00;91.40;;;;;;4977511;28;20171;-88
2023/12/04 10:45:51;;;;;;;35.30;23.93;;;0.00;91.30;;;;;;4978222;28;20537;-88
2023/12/04 10:48:18;;;;;;;33.23;24.10;;;0.00;91.20;;;;;;4977539;28;20200;-88
2023/12/04 10:50:46;;;;;;;37.90;29.70;;;0.00;91.10;;;;;;4994896;28;20639;-89
2023/12/04 10:53:14;;;;;;;39.37;29.07;;;0.00;91.10;;;;;;4977965;28;20181;-90
2023/12/04 10:55:41;;;;;;;33.33;27.53;;;0.00;91.00;;;;;;4994589;28;20180;-89
2023/12/04 10:58:14;;;;;;;35.83;28.97;;;0.00;91.00;;;;;;4977048;28;20226;-89
2023/12/04 11:00:50;;;;;;;41.70;28.60;;;0.00;90.90;;;;;;4977001;28;20584;-89
2023/12/04 11:03:23;;;;;;;38.07;30.40;;;0.00;90.90;;;;;;4977388;28;20626;-89
2023/12/04 11:05:56;;;;;;;38.97;30.30;;;0.00;90.80;;;;;;4977789;28;20174;-88
2023/12/04 11:08:23;;;;;;;37.27;29.37;;;0.00;90.80;;;;;;4976969;28;20200;-89
2023/12/04 11:10:58;;;;;;;35.67;26.37;;;0.00;90.80;;;;;;4993425;28;20178;-89
2023/12/04 11:13:30;;;;;;;31.70;23.77;;;0.00;90.70;;;;;;4976985;28;20319;-89
2023/12/04 11:16:09;;;;;;;31.87;23.30;;;0.00;90.70;;;;;;4994302;28;20194;-89
2023/12/04 11:18:38;;;;;;;35.73;28.47;;;0.00;90.70;;;;;;4977049;28;20201;-89
2023/12/04 11:21:07;;;;;;;36.43;29.87;;;0.00;90.70;;;;;;4976570;28;20200;-88
2023/12/04 11:23:34;;;;;;;35.00;24.03;;;0.00;90.70;;;;;;4992780;28;20177;-88
2023/12/04 11:27:10;;;;;;;35.63;24.37;;;0.00;90.70;;;;;;4995645;28;20172;-91
2023/12/04 11:32:19;;;;;;;34.97;29.37;;;0.00;90.60;;;;;;4955599;29;20230;-87
2023/12/04 11:34:49;;;;;;;34.37;26.80;;;0.00;90.60;;;;;;4955794;29;20161;-86
2023/12/04 11:37:14;;;;;;;38.80;28.20;;;0.00;90.70;;;;;;4954187;29;20701;-90
2023/12/04 11:39:41;;;;;;;36.00;27.20;;;0.00;90.70;;;;;;4938835;29;20210;-88
2023/12/04 11:42:13;;;;;;;41.70;32.90;;;0.00;90.80;;;;;;4955690;28;20175;-89
2023/12/04 11:44:59;;;;;;;41.23;32.90;;;0.00;90.70;;;;;;4954348;28;20180;-87
2023/12/04 11:47:27;;;;;;;39.27;29.53;;;0.00;90.70;;;;;;4954212;29;20177;-87
2023/12/04 11:49:53;;;;;;;40.93;29.10;;;0.00;90.60;;;;;;4938329;29;20181;-88
2023/12/04 11:52:33;;;;;;;37.00;28.30;;;0.00;90.60;;;;;;4969778;28;20562;-89
2023/12/04 11:55:11;;;;;;;41.77;30.43;;;0.00;90.60;;;;;;4954902;29;20178;-88
2023/12/04 11:57:40;;;;;;;41.03;31.83;;;-0.10;90.50;;;;;;4954792;28;20188;-89
2023/12/04 12:00:11;;;;;;;40.07;29.80;;;-0.10;90.60;;;;;;4956886;28;20220;-88
2023/12/04 12:02:58;;;;;;;39.23;29.80;;;-0.10;90.60;;;;;;4957190;28;20667;-88
2023/12/04 12:05:25;;;;;;;42.60;33.70;;;-0.10;90.70;;;;;;4958337;28;20273;-88
2023/12/04 12:07:51;;;;;;;44.27;33.30;;;-0.10;90.70;;;;;;4974525;28;20213;-86
2023/12/04 12:10:17;;;;;;;39.20;31.70;;;0.00;90.70;;;;;;4957749;28;20190;-88
2023/12/04 12:12:58;;;;;;;44.37;27.90;;;0.00;90.60;;;;;;4958175;28;20280;-89
2023/12/04 12:15:24;;;;;;;39.43;29.33;;;0.00;90.60;;;;;;4974882;28;20184;-87
2023/12/04 12:17:51;;;;;;;36.10;29.97;;;0.00;90.60;;;;;;4979407;23;20212;-87
2023/12/04 12:20:17;;;;;;;38.60;30.87;;;-0.10;90.50;;;;;;4958206;28;20217;-88
2023/12/04 12:22:46;;;;;;;38.40;30.97;;;-0.10;90.50;;;;;;4957537;28;20178;-88
2023/12/04 12:25:12;;;;;;;40.93;30.40;;;-0.10;90.50;;;;;;4973849;28;20638;-88
2023/12/04 12:27:38;;;;;;;38.70;28.87;;;-0.10;90.50;;;;;;4956761;28;20178;-88
2023/12/04 12:30:04;;;;;;;44.27;33.97;;;-0.20;90.60;;;;;;4957775;28;20185;-87
2023/12/04 12:32:34;;;;;;;43.40;32.67;;;-0.10;90.60;;;;;;4957390;28;20527;-88
2023/12/04 12:35:00;;;;;;;38.27;32.20;;;-0.10;90.50;;;;;;4996079;28;20695;-88
2023/12/04 12:37:26;;;;;;;37.33;27.93;;;-0.10;90.60;;;;;;4980271;28;20273;-88
2023/12/04 12:39:52;;;;;;;41.60;31.30;;;-0.10;90.60;;;;;;4979668;28;20212;-89
2023/12/04 12:42:24;;;;;;;40.17;31.87;;;-0.10;90.60;;;;;;4997128;28;20178;-89
2023/12/04 12:44:50;;;;;;;42.27;33.37;;;-0.10;90.70;;;;;;4980041;28;20177;-89
2023/12/04 12:47:16;;;;;;;43.50;33.30;;;-0.10;90.70;;;;;;4996069;28;20557;-89
2023/12/04 12:50:10;;;;;;;39.23;30.40;;;-0.10;90.80;;;;;;4997355;28;20204;-90
2023/12/04 12:52:36;;;;;;;38.33;27.67;;;0.00;90.90;;;;;;4980247;28;20210;-89
2023/12/04 12:55:27;;;;;;;41.80;30.57;;;0.00;90.80;;;;;;4998482;28;20184;-91
2023/12/04 12:57:56;;;;;;;46.63;30.40;;;0.00;90.80;;;;;;4979273;28;20256;-90
2023/12/04 13:00:22;;;;;;;39.37;29.43;;;0.00;90.80;;;;;;4979166;28;20697;-90
2023/12/04 13:02:48;;;;;;;37.33;25.57;;;0.00;90.80;;;;;;4979508;28;20704;-90
2023/12/04 13:05:17;;;;;;;38.50;27.40;;;0.00;90.80;;;;;;4979812;28;20272;-90
2023/12/04 13:07:43;;;;;;;38.03;25.93;;;0.00;90.80;;;;;;4980069;28;20175;-90
2023/12/04 13:10:09;;;;;;;34.67;25.70;;;0.00;90.80;;;;;;4978951;28;20279;-90
2023/12/04 13:12:34;;;;;;;39.43;26.77;;;0.00;90.70;;;;;;4979313;28;20226;-90
2023/12/04 13:15:01;;;;;;;35.27;25.80;;;0.00;90.70;;;;;;4979204;28;20695;-90
2023/12/04 13:17:27;;;;;;;33.57;24.10;;;0.00;90.70;;;;;;4979489;28;20215;-90
2023/12/04 13:19:53;;;;;;;34.00;26.27;;;0.00;90.50;;;;;;4978731;28;20217;-90
2023/12/04 13:22:19;;;;;;;39.10;29.90;;;0.00;90.50;;;;;;4979083;28;20188;-90
2023/12/04 13:24:47;;;;;;;34.97;30.23;;;0.00;90.50;;;;;;4996155;28;20551;-90
2023/12/04 13:27:13;;;;;;;36.40;31.10;;;0.00;90.40;;;;;;4996023;28;20173;-90
2023/12/04 13:29:39;;;;;;;38.00;31.17;;;0.00;90.40;;;;;;4978574;28;20208;-90
2023/12/04 13:32:05;;;;;;;36.97;29.80;;;0.10;90.30;;;;;;4978657;28;20560;-90
2023/12/04 13:34:34;;;;;;;39.63;31.17;;;0.10;90.30;;;;;;4978742;28;20181;-91
2023/12/04 13:36:59;;;;;;;34.13;28.53;;;0.00;90.20;;;;;;4996225;28;20542;-90
2023/12/04 13:40:08;;;;;;;37.60;31.30;;;0.10;90.20;;;;;;4978475;28;20287;-90
2023/12/04 13:45:03;;;;;;;32.17;25.43;;;0.10;90.20;;;;;;4995958;28;20181;-90
2023/12/04 13:47:29;;;;;;;32.80;26.63;;;0.10;90.20;;;;;;4979030;28;20179;-90
2023/12/04 13:49:55;;;;;;;34.13;29.43;;;0.00;90.10;;;;;;4978395;28;20721;-91
2023/12/04 13:52:22;;;;;;;37.17;31.67;;;0.00;90.00;;;;;;4977426;28;20275;-90
2023/12/04 13:54:49;;;;;;;33.73;25.33;;;0.00;89.90;;;;;;4978512;28;20181;-90
2023/12/04 13:57:22;;;;;;;29.70;25.83;;;0.00;89.80;;;;;;4978224;28;20185;-91
2023/12/04 13:59:47;;;;;;;37.50;26.67;;;0.00;89.80;;;;;;4978088;28;20213;-90
2023/12/04 14:02:15;;;;;;;32.37;28.57;;;0.00;89.70;;;;;;4995275;28;20675;-90
2023/12/04 14:04:41;;;;;;;34.83;28.63;;;0.00;89.70;;;;;;4978177;28;20183;-91
2023/12/04 14:07:11;;;;;;;31.70;28.30;;;0.00;89.60;;;;;;4978204;28;20591;-90
2023/12/04 14:09:39;;;;;;;30.03;24.37;;;-0.10;89.70;;;;;;4977984;28;20198;-90
2023/12/04 14:12:06;;;;;;;32.23;24.17;;;0.00;89.70;;;;;;4995235;28;20722;-91
2023/12/04 14:14:33;;;;;;;31.07;26.77;;;0.00;89.70;;;;;;4977836;28;20624;-90
2023/12/04 14:16:59;;;;;;;37.00;28.93;;;0.00;89.70;;;;;;4978210;28;20233;-91
2023/12/04 14:19:27;;;;;;;35.57;28.43;;;-0.10;89.70;;;;;;4977670;28;20224;-91
2023/12/04 14:21:53;;;;;;;30.83;26.03;;;0.00;89.70;;;;;;4976992;28;20185;-91
2023/12/04 14:24:28;;;;;;;35.00;26.33;;;0.00;89.60;;;;;;4994239;28;20175;-90
2023/12/04 14:26:55;;;;;;;32.50;28.60;;;0.00;89.50;;;;;;4978723;28;20187;-90
2023/12/04 14:29:23;;;;;;;36.97;27.80;;;-0.10;89.60;;;;;;4977787;28;20573;-90
2023/12/04 14:31:50;;;;;;;32.63;28.03;;;-0.10;89.60;;;;;;4977894;28;20573;-90
2023/12/04 14:34:15;;;;;;;30.20;25.20;;;-0.10;89.50;;;;;;4977719;28;20179;-90
2023/12/04 14:36:43;;;;;;;32.73;25.63;;;-0.10;89.50;;;;;;4977939;28;20709;-90
2023/12/04 14:39:12;;;;;;;29.97;26.57;;;-0.20;89.40;;;;;;4978101;28;20252;-91
2023/12/04 14:41:38;;;;;;;30.07;26.57;;;-0.10;89.30;;;;;;4978106;28;20291;-91
2023/12/04 14:44:03;;;;;;;34.43;29.03;;;-0.20;89.20;;;;;;4977774;28;20209;-90
2023/12/04 14:46:29;;;;;;;35.67;25.30;;;-0.20;89.20;;;;;;4977911;28;20176;-90
2023/12/04 14:48:54;;;;;;;33.73;26.33;;;-0.20;89.20;;;;;;4977360;28;20204;-90
2023/12/04 14:51:20;;;;;;;30.90;24.53;;;-0.20;89.30;;;;;;4977359;28;20651;-91
2023/12/04 14:54:12;;;;;;;33.87;27.10;;;-0.20;89.50;;;;;;4977571;28;20645;-91
2023/12/04 15:10:17;;;;;;;30.80;24.93;;;0.00;89.60;;;;;;4995518;28;20195;-90
2023/12/04 15:20:44;;;;;;;30.87;24.83;;;0.00;89.50;;;;;;4996169;28;20630;-89
2023/12/04 15:23:10;;;;;;;37.80;25.93;;;0.00;89.60;;;;;;4995887;28;20170;-89
2023/12/04 15:25:36;;;;;;;27.63;22.10;;;0.00;89.60;;;;;;4995840;28;20303;-88
2023/12/04 15:28:06;;;;;;;36.23;22.80;;;0.00;89.60;;;;;;4995810;28;20188;-88
2023/12/04 15:30:35;;;;;;;32.67;25.67;;;0.00;89.60;;;;;;4978508;28;20172;-88
2023/12/04 15:33:01;;;;;;;34.50;25.77;;;0.00;89.70;;;;;;4995006;28;20700;-88
2023/12/04 15:35:28;;;;;;;31.83;23.80;;;0.00;89.70;;;;;;4977725;28;20180;-89
2023/12/04 15:37:53;;;;;;;34.93;26.27;;;0.10;89.70;;;;;;4977275;28;20208;-89
2023/12/04 15:40:19;;;;;;;33.97;23.40;;;0.10;89.70;;;;;;4978115;28;20205;-88
2023/12/04 15:42:45;;;;;;;28.87;22.07;;;0.10;89.60;;;;;;4978074;28;20181;-88
2023/12/04 15:45:11;;;;;;;32.80;25.03;;;0.10;89.70;;;;;;4977214;28;20177;-88
2023/12/04 15:47:36;;;;;;;34.03;25.63;;;0.00;89.70;;;;;;4977422;28;20176;-88
2023/12/04 15:50:05;;;;;;;33.50;24.47;;;0.00;89.80;;;;;;4977281;28;20561;-88
2023/12/04 15:52:30;;;;;;;30.93;21.83;;;0.00;89.80;;;;;;4977288;28;20185;-88
2023/12/04 15:54:56;;;;;;;38.37;23.30;;;0.00;89.90;;;;;;4993725;28;20190;-89
2023/12/04 15:57:24;;;;;;;32.97;22.43;;;0.00;89.90;;;;;;4977741;28;20180;-89
2023/12/04 15:59:50;;;;;;;33.07;22.07;;;0.00;90.00;;;;;;4995651;28;20203;-88
2023/12/04 16:02:15;;;;;;;31.57;21.90;;;0.00;90.10;;;;;;4996314;28;20656;-87
2023/12/04 16:04:41;;;;;;;31.80;22.33;;;0.00;90.10;;;;;;4996039;28;20255;-89
2023/12/04 16:07:06;;;;;;;34.43;21.80;;;0.00;90.20;;;;;;4978710;28;20186;-88
2023/12/04 16:09:32;;;;;;;33.07;22.40;;;0.00;90.30;;;;;;4982784;28;20283;-88
2023/12/04 16:11:57;;;;;;;29.13;23.90;;;-0.10;90.30;;;;;;4999222;28;20217;-88
2023/12/04 16:14:23;;;;;;;37.07;25.47;;;-0.10;90.40;;;;;;5000413;28;20183;-89
2023/12/04 16:16:48;;;;;;;34.83;24.97;;;-0.10;90.40;;;;;;4999349;28;20185;-88
2023/12/04 16:19:15;;;;;;;30.23;24.00;;;-0.10;90.40;;;;;;4982768;28;20220;-88
2023/12/04 16:21:40;;;;;;;33.53;24.97;;;-0.10;90.30;;;;;;4999859;28;20837;-89
2023/12/04 16:24:06;;;;;;;33.10;25.17;;;-0.10;90.30;;;;;;5000084;28;20171;-88
2023/12/04 16:26:34;;;;;;;30.60;24.10;;;-0.10;90.30;;;;;;5000306;28;20174;-89
2023/12/04 16:28:59;;;;;;;33.97;26.77;;;0.00;90.30;;;;;;4982574;28;20233;-88
2023/12/04 16:31:25;;;;;;;27.73;21.30;;;0.00;90.10;;;;;;5000306;28;20256;-88
2023/12/04 16:33:50;;;;;;;32.30;22.00;;;0.00;90.00;;;;;;5000117;28;20549;-88
2023/12/04 16:36:17;;;;;;;26.30;23.23;;;0.00;89.80;;;;;;5000283;28;20727;-89
2023/12/04 16:38:43;;;;;;;29.83;25.07;;;0.00;89.60;;;;;;4982130;28;20296;-88
2023/12/04 16:41:13;;;;;;;29.30;24.23;;;0.00;89.50;;;;;;4998546;28;20250;-89
2023/12/04 16:43:41;;;;;;;28.10;22.57;;;0.00;89.40;;;;;;5000198;28;20165;-89